KROA/ROA METAR and TAF weather

Enter ICAO airport designator
Station Type Date Time Source
KROA METAR 2019/06/16 20:44 UTC NOAA

KROA 162044Z 32008G45KT 290V010 10SM -TSRA SCT050CB BKN065 BKN075 24/18 A2999 RMK AO2 PK WND 01045/2036 WSHFT 2019 RAB26GSB34E38 TSB21 OCNL LTGIC N TS N MOV E P0004 T02440178


Station Type Date Time Source
KROA Decoded METAR 2019/06/16 20:44 UTC NOAA

ROANOKE REGIONAL AIRPORT, VA, United States (KROA) 37-19N 079-58W 362M
Jun 16, 2019 - 04:44 PM EDT / 2019.06.16 2044 UTC
Wind: from the NW (320 degrees) at 9 MPH (8 KT) gusting to 52 MPH (45 KT) (direction variable):0
Visibility: 10 mile(s):0
Sky conditions: mostly cloudy
Weather: light rain with thunder; Cumulonimbus clouds, lightning observed
Precipitation last hour: 0.04 inches
Temperature: 75.9 F (24.4 C)
Dew Point: 64.0 F (17.8 C)
Relative Humidity: 66%
Pressure (altimeter): 29.99 in. Hg (1015 hPa)
ob: KROA 162044Z 32008G45KT 290V010 10SM -TSRA SCT050CB BKN065 BKN075 24/18 A2999 RMK AO2 PK WND 01045/2036 WSHFT 2019 RAB26GSB34E38 TSB21 OCNL LTGIC N TS N MOV E P0004 T02440178
cycle: 20

Station Type Date Time Source
KROA TAF 2019/06/16 21:45 UTC NOAA

TAF KROA 162041Z 1621/1718 02015G30KT 5SM TSRA OVC050CB
TEMPO 1621/1622 VRB22G45KT 1SM TSRAGS BKN030CB
FM170300 23005KT P6SM VCTS SCT050CB BKN120
FM170500 26005KT P6SM SCT150

Example: see airport list